createdAt,value
2018-09-23T00:02:05.584Z,98293.13
2018-09-23T00:04:33.324Z,98299.93
2018-09-23T00:07:00.984Z,98298.85
2018-09-23T00:09:28.679Z,98300.79
2018-09-23T00:11:56.343Z,98299.34
2018-09-23T00:14:24.061Z,98300.42
2018-09-23T00:16:51.726Z,98307.01
2018-09-23T00:19:19.395Z,98306.07
2018-09-23T00:21:47.140Z,98304.01
2018-09-23T00:24:14.836Z,98311.63
2018-09-23T00:26:42.508Z,98312.80
2018-09-23T00:29:10.212Z,98313.49
2018-09-23T00:31:37.937Z,98313.12
2018-09-23T00:34:05.608Z,98321.55
2018-09-23T00:36:33.325Z,98324.83
2018-09-23T00:39:01.004Z,98328.49
2018-09-23T00:41:28.687Z,98331.37
2018-09-23T00:43:56.420Z,98340.86
2018-09-23T00:46:24.096Z,98335.58
2018-09-23T00:48:51.865Z,98336.53
2018-09-23T00:51:19.580Z,98344.36
2018-09-23T00:53:47.250Z,98345.44
2018-09-23T00:56:15.033Z,98349.02
2018-09-23T00:58:42.720Z,98354.67
2018-09-23T01:01:10.523Z,98353.09
2018-09-23T01:03:38.212Z,98350.11
2018-09-23T01:06:05.900Z,98352.13
2018-09-23T01:08:33.573Z,98361.38
2018-09-23T01:11:01.253Z,98360.91
2018-09-23T01:13:28.903Z,98359.83
2018-09-23T01:15:56.596Z,98364.98
2018-09-23T01:18:24.287Z,98361.16
2018-09-23T01:20:51.966Z,98361.86
2018-09-23T01:23:19.619Z,98359.56
2018-09-23T01:25:47.331Z,98364.38
2018-09-23T01:28:15.000Z,98365.56
2018-09-23T01:30:42.724Z,98370.47
2018-09-23T01:33:10.423Z,98380.42
2018-09-23T01:35:38.083Z,98378.11
2018-09-23T01:38:05.813Z,98386.64
2018-09-23T01:40:33.540Z,98371.03
2018-09-23T01:43:01.188Z,98375.00
2018-09-23T01:45:28.860Z,98379.42
2018-09-23T01:47:56.567Z,98377.98
2018-09-23T01:50:24.228Z,98380.38
2018-09-23T01:52:51.920Z,98383.38
2018-09-23T01:55:19.624Z,98372.83
2018-09-23T01:57:47.344Z,98376.65
2018-09-23T02:00:15.009Z,98382.64
2018-09-23T02:02:43.398Z,98372.64
2018-09-23T02:05:11.132Z,98378.28
2018-09-23T02:07:38.799Z,98379.38
2018-09-23T02:10:06.490Z,98381.92
2018-09-23T02:12:34.176Z,98383.95
2018-09-23T02:15:01.848Z,98382.11
2018-09-23T02:17:29.556Z,98387.48
2018-09-23T02:19:57.231Z,98391.09
2018-09-23T02:22:24.928Z,98382.19
2018-09-23T02:24:52.648Z,98380.39
2018-09-23T02:27:20.307Z,98385.84
2018-09-23T02:29:47.992Z,98389.17
2018-09-23T02:32:15.716Z,98393.13
2018-09-23T02:34:43.380Z,98395.05
2018-09-23T02:37:11.095Z,98389.31
2018-09-23T02:39:38.783Z,98393.13
2018-09-23T02:42:06.484Z,98391.09
2018-09-23T02:44:34.143Z,98384.95
2018-09-23T02:47:01.878Z,98385.48
2018-09-23T02:49:29.559Z,98386.28
2018-09-23T02:51:57.248Z,98387.55
2018-09-23T02:54:24.973Z,98383.42
2018-09-23T02:56:52.675Z,98385.15
2018-09-23T02:59:20.396Z,98386.44
2018-09-23T03:01:48.055Z,98381.77
2018-09-23T03:04:15.720Z,98380.13
2018-09-23T03:06:43.404Z,98394.93
2018-09-23T03:09:11.121Z,98388.98
2018-09-23T03:11:38.788Z,98394.80
2018-09-23T03:14:06.499Z,98397.38
2018-09-23T03:16:34.192Z,98399.38
2018-09-23T03:19:01.876Z,98397.80
2018-09-23T03:21:29.552Z,98394.75
2018-09-23T03:23:57.295Z,98398.50
2018-09-23T03:26:24.948Z,98395.08
2018-09-23T03:28:52.619Z,98391.81
2018-09-23T03:31:20.310Z,98396.34
2018-09-23T03:33:47.985Z,98398.08
2018-09-23T03:36:15.660Z,98396.86
2018-09-23T03:38:43.435Z,98401.48
2018-09-23T03:41:11.092Z,98397.19
2018-09-23T03:43:38.775Z,98399.91
2018-09-23T03:46:06.457Z,98406.44
2018-09-23T03:48:34.117Z,98397.66
2018-09-23T03:51:01.907Z,98397.95
2018-09-23T03:53:29.603Z,98398.25
2018-09-23T03:55:57.336Z,98402.27
2018-09-23T03:58:25.016Z,98399.77
2018-09-23T04:00:52.684Z,98407.20
2018-09-23T04:03:20.380Z,98401.47
2018-09-23T04:05:48.047Z,98408.34
2018-09-23T04:08:15.744Z,98411.55
2018-09-23T04:10:43.411Z,98420.96
2018-09-23T04:13:11.067Z,98415.64
2018-09-23T04:15:38.776Z,98419.41
2018-09-23T04:18:06.439Z,98416.02
2018-09-23T04:20:34.184Z,98426.16
2018-09-23T04:23:01.905Z,98421.89
2018-09-23T04:25:29.575Z,98433.52
2018-09-23T04:27:57.239Z,98431.66
2018-09-23T04:30:24.935Z,98429.88
2018-09-23T04:32:52.646Z,98433.32
2018-09-23T04:35:20.382Z,98428.27
2018-09-23T04:37:48.174Z,98430.63
2018-09-23T04:40:15.870Z,98426.40
2018-09-23T04:42:43.597Z,98421.98
2018-09-23T04:45:11.281Z,98420.46
2018-09-23T04:47:39.092Z,98429.98
2018-09-23T04:50:06.838Z,98427.91
2018-09-23T04:52:34.516Z,98428.81
2018-09-23T04:55:02.231Z,98424.28
2018-09-23T04:57:29.903Z,98411.76
2018-09-23T04:59:57.588Z,98420.38
2018-09-23T05:02:25.271Z,98421.17
2018-09-23T05:04:52.940Z,98419.39
2018-09-23T05:07:20.923Z,98426.81
2018-09-23T05:09:48.672Z,98421.28
2018-09-23T05:12:16.363Z,98429.67
2018-09-23T05:14:44.493Z,98429.18
2018-09-23T05:17:12.239Z,98425.20
2018-09-23T05:19:39.918Z,98429.49
2018-09-23T05:22:07.746Z,98433.78
2018-09-23T05:24:35.399Z,98436.72
2018-09-23T05:27:03.061Z,98438.50
2018-09-23T05:29:30.818Z,98432.55
2018-09-23T05:31:58.551Z,98428.78
2018-09-23T05:34:26.243Z,98436.03
2018-09-23T05:36:53.975Z,98426.14
2018-09-23T05:39:21.619Z,98431.36
2018-09-23T05:41:49.267Z,98429.94
2018-09-23T05:44:16.984Z,98428.31
2018-09-23T05:46:44.673Z,98431.19
2018-09-23T05:49:12.326Z,98434.80
2018-09-23T05:51:40.033Z,98433.72
2018-09-23T05:54:07.723Z,98433.98
2018-09-23T05:56:35.392Z,98433.02
2018-09-23T05:59:03.070Z,98440.34
2018-09-23T06:01:30.788Z,98440.22
2018-09-23T06:03:58.459Z,98443.20
2018-09-23T06:06:26.164Z,98443.07
2018-09-23T06:08:53.951Z,98445.84
2018-09-23T06:11:21.625Z,98451.37
2018-09-23T06:13:49.321Z,98442.83
2018-09-23T06:16:17.017Z,98447.19
2018-09-23T06:18:44.696Z,98453.42
2018-09-23T06:21:12.360Z,98443.09
2018-09-23T06:23:40.447Z,98449.46
2018-09-23T06:26:08.116Z,98452.23
2018-09-23T06:28:35.775Z,98453.66
2018-09-23T06:31:03.557Z,98461.14
2018-09-23T06:33:31.230Z,98452.70
2018-09-23T06:35:58.928Z,98451.84
2018-09-23T06:38:26.694Z,98447.38
2018-09-23T06:40:54.364Z,98449.69
2018-09-23T06:43:22.423Z,98462.88
2018-09-23T06:45:50.178Z,98457.20
2018-09-23T06:48:18.164Z,98462.36
2018-09-23T06:50:45.890Z,98452.00
2018-09-23T06:53:13.551Z,98469.41
2018-09-23T06:55:41.216Z,98468.00
2018-09-23T06:58:08.884Z,98470.89
2018-09-23T07:00:36.556Z,98463.27
2018-09-23T07:03:04.365Z,98459.02
2018-09-23T07:05:32.038Z,98467.45
2018-09-23T07:07:59.719Z,98466.30
2018-09-23T07:10:27.484Z,98465.39
2018-09-23T07:12:55.131Z,98465.58
2018-09-23T07:15:22.828Z,98467.41
2018-09-23T07:17:50.557Z,98462.53
2018-09-23T07:20:18.229Z,98474.48
2018-09-23T07:22:45.950Z,98470.34
2018-09-23T07:25:13.663Z,98467.53
2018-09-23T07:27:41.365Z,98467.48
2018-09-23T07:30:09.112Z,98482.58
2018-09-23T07:32:36.780Z,98471.10
2018-09-23T07:35:04.500Z,98471.73
2018-09-23T07:37:32.192Z,98481.16
2018-09-23T07:39:59.899Z,98475.66
2018-09-23T07:42:27.549Z,98481.23
2018-09-23T07:44:55.301Z,98480.60
2018-09-23T07:47:22.956Z,98482.97
2018-09-23T07:49:50.611Z,98488.58
2018-09-23T07:52:18.320Z,98489.52
2018-09-23T07:54:45.976Z,98494.30
2018-09-23T07:57:13.653Z,98490.69
2018-09-23T07:59:41.339Z,98484.53
2018-09-23T08:02:09.015Z,98492.02
2018-09-23T08:04:36.805Z,98493.88
2018-09-23T08:07:04.533Z,98494.17
2018-09-23T08:09:32.227Z,98497.67
2018-09-23T08:11:59.927Z,98494.41
2018-09-23T08:14:28.019Z,98498.44
2018-09-23T08:16:55.676Z,98496.12
2018-09-23T08:19:23.747Z,98499.83
2018-09-23T08:21:51.643Z,98496.38
2018-09-23T08:24:19.324Z,98499.50
2018-09-23T08:26:47.017Z,98509.30
2018-09-23T08:29:14.719Z,98508.61
2018-09-23T08:31:42.404Z,98509.05
2018-09-23T08:34:10.137Z,98510.30
2018-09-23T08:36:37.800Z,98513.88
2018-09-23T08:39:06.279Z,98527.03
2018-09-23T08:41:34.019Z,98524.90
2018-09-23T08:44:01.751Z,98521.95
2018-09-23T08:46:30.271Z,98519.39
2018-09-23T08:48:57.964Z,98522.97
2018-09-23T08:51:25.627Z,98520.18
2018-09-23T08:53:53.309Z,98524.61
2018-09-23T08:56:21.015Z,98534.31
2018-09-23T08:58:48.708Z,98533.20
2018-09-23T09:01:16.355Z,98535.38
2018-09-23T09:03:44.046Z,98542.05
2018-09-23T09:06:11.794Z,98552.63
2018-09-23T09:08:39.589Z,98554.58
2018-09-23T09:11:07.280Z,98549.23
2018-09-23T09:13:35.397Z,98555.25
2018-09-23T09:16:03.236Z,98551.36
2018-09-23T09:18:30.989Z,98535.47
2018-09-23T09:20:58.779Z,98563.06
2018-09-23T09:23:26.616Z,98556.45
2018-09-23T09:25:54.365Z,98552.37
2018-09-23T09:28:22.019Z,98549.56
2018-09-23T09:30:49.755Z,98559.61
2018-09-23T09:33:17.419Z,98552.75
2018-09-23T09:35:45.084Z,98558.55
2018-09-23T09:38:12.782Z,98557.55
2018-09-23T09:40:40.501Z,98559.83
2018-09-23T09:43:08.160Z,98568.02
2018-09-23T09:45:35.850Z,98572.55
2018-09-23T09:48:03.500Z,98567.66
2018-09-23T09:50:31.188Z,98577.39
2018-09-23T09:52:58.899Z,98569.63
2018-09-23T09:55:26.635Z,98574.36
2018-09-23T09:57:54.379Z,98572.23
2018-09-23T10:00:27.716Z,98566.32
2018-09-23T10:02:55.416Z,98573.08
2018-09-23T10:05:23.083Z,98578.16
2018-09-23T10:07:50.936Z,98582.85
2018-09-23T10:10:18.916Z,98580.78
2018-09-23T10:12:46.583Z,98587.27
2018-09-23T10:15:14.452Z,98586.34
2018-09-23T10:17:42.108Z,98582.91
2018-09-23T10:20:09.803Z,98585.98
2018-09-23T10:22:37.567Z,98592.19
2018-09-23T10:25:05.324Z,98568.90
2018-09-23T10:27:33.179Z,98590.69
2018-09-23T10:30:00.849Z,98587.76
2018-09-23T10:32:28.572Z,98597.86
2018-09-23T10:34:56.255Z,98598.17
2018-09-23T10:37:23.992Z,98602.22
2018-09-23T10:39:51.647Z,98610.93
2018-09-23T10:42:19.396Z,98606.42
2018-09-23T10:44:47.108Z,98604.94
2018-09-23T10:47:14.776Z,98612.39
2018-09-23T10:49:42.693Z,98605.88
2018-09-23T10:52:10.351Z,98608.25
2018-09-23T10:54:38.041Z,98606.53
2018-09-23T10:57:05.803Z,98620.45
2018-09-23T10:59:33.594Z,98620.41
2018-09-23T11:02:01.265Z,98620.86
2018-09-23T11:04:28.940Z,98624.06
2018-09-23T11:06:56.609Z,98624.45
2018-09-23T11:09:24.328Z,98618.30
2018-09-23T11:11:52.054Z,98627.31
2018-09-23T11:14:19.753Z,98569.00
2018-09-23T11:16:47.448Z,98624.88
2018-09-23T11:19:15.155Z,98644.92
2018-09-23T11:21:42.815Z,98635.67
2018-09-23T11:24:10.583Z,98638.38
2018-09-23T11:26:38.296Z,98647.73
2018-09-23T11:29:06.070Z,98647.03
2018-09-23T11:31:33.743Z,98654.16
2018-09-23T11:34:01.480Z,98647.27
2018-09-23T11:36:29.169Z,98663.60
2018-09-23T11:38:56.844Z,98653.11
2018-09-23T11:41:24.680Z,98660.59
2018-09-23T11:43:52.372Z,98662.19
2018-09-23T11:46:20.060Z,98644.61
2018-09-23T11:48:47.776Z,98656.92
2018-09-23T11:51:15.547Z,98663.88
2018-09-23T11:53:43.215Z,98666.99
2018-09-23T11:56:10.904Z,98672.02
2018-09-23T11:58:38.588Z,98667.66
2018-09-23T12:01:06.363Z,98681.41
2018-09-23T12:03:34.033Z,98682.72
2018-09-23T12:06:01.790Z,98675.09
2018-09-23T12:08:29.622Z,98685.27
2018-09-23T12:10:57.338Z,98683.92
2018-09-23T12:13:24.991Z,98682.41
2018-09-23T12:15:52.699Z,98680.04
2018-09-23T12:18:20.383Z,98683.24
2018-09-23T12:20:48.064Z,98692.95
2018-09-23T12:23:15.778Z,98686.92
2018-09-23T12:25:43.554Z,98701.83
2018-09-23T12:28:11.168Z,98695.67
2018-09-23T12:30:38.916Z,98691.73
2018-09-23T12:33:07.475Z,98701.45
2018-09-23T12:35:35.208Z,98693.36
2018-09-23T12:38:02.941Z,98699.78
2018-09-23T12:40:30.657Z,98712.63
2018-09-23T12:42:58.333Z,98712.20
2018-09-23T12:45:26.008Z,98704.63
2018-09-23T12:47:53.684Z,98708.34
2018-09-23T12:50:21.460Z,98709.36
2018-09-23T12:52:49.134Z,98707.45
2018-09-23T12:55:16.832Z,98711.56
2018-09-23T12:57:44.513Z,98713.51
2018-09-23T13:00:12.212Z,98711.67
2018-09-23T13:02:39.981Z,98708.94
2018-09-23T13:05:07.739Z,98708.91
2018-09-23T13:07:35.440Z,98708.19
2018-09-23T13:10:03.260Z,98716.64
2018-09-23T13:12:30.912Z,98707.73
2018-09-23T13:14:59.012Z,98709.25
2018-09-23T13:17:26.672Z,98712.92
2018-09-23T13:19:54.344Z,98722.23
2018-09-23T13:22:22.056Z,98721.22
2018-09-23T13:24:49.775Z,98721.31
2018-09-23T13:27:17.473Z,98718.47
2018-09-23T13:29:45.175Z,98734.91
2018-09-23T13:32:12.855Z,98728.50
2018-09-23T13:34:40.565Z,98728.76
2018-09-23T13:37:08.295Z,98735.27
2018-09-23T13:39:35.983Z,98741.20
2018-09-23T13:42:03.672Z,98753.40
2018-09-23T13:44:31.355Z,98744.25
2018-09-23T13:46:59.264Z,98748.34
2018-09-23T13:49:27.343Z,98749.58
2018-09-23T13:51:55.114Z,98744.56
2018-09-23T13:54:22.883Z,98759.02
2018-09-23T13:56:50.577Z,98757.56
2018-09-23T13:59:18.262Z,98758.31
2018-09-23T14:01:45.927Z,98749.18
2018-09-23T14:04:13.652Z,98762.19
2018-09-23T14:06:41.368Z,98770.16
2018-09-23T14:09:09.056Z,98779.20
2018-09-23T14:11:36.776Z,98776.16
2018-09-23T14:14:04.481Z,98778.92
2018-09-23T14:16:32.156Z,98780.00
2018-09-23T14:18:59.955Z,98782.28
2018-09-23T14:21:27.740Z,98792.51
2018-09-23T14:23:55.561Z,98785.78
2018-09-23T14:26:23.828Z,98794.55
2018-09-23T14:28:51.544Z,98799.26
2018-09-23T14:31:19.236Z,98798.52
2018-09-23T14:33:46.944Z,98802.97
2018-09-23T14:36:14.672Z,98800.08
2018-09-23T14:38:42.351Z,98806.80
2018-09-23T14:41:10.043Z,98810.26
2018-09-23T14:43:38.088Z,98814.36
2018-09-23T14:46:06.103Z,98804.58
2018-09-23T14:48:33.796Z,98815.03
2018-09-23T14:51:01.492Z,98815.87
2018-09-23T14:53:29.170Z,98804.80
2018-09-23T14:55:56.847Z,98811.66
2018-09-23T14:58:24.564Z,98804.61
2018-09-23T15:00:52.239Z,98813.95
2018-09-23T15:03:20.104Z,98816.27
2018-09-23T15:05:48.137Z,98814.58
2018-09-23T15:08:15.828Z,98817.45
2018-09-23T15:10:43.542Z,98821.26
2018-09-23T15:13:11.212Z,98822.52
2018-09-23T15:15:38.907Z,98819.98
2018-09-23T15:18:06.680Z,98819.48
2018-09-23T15:20:34.372Z,98821.25
2018-09-23T15:23:02.082Z,98828.78
2018-09-23T15:25:29.771Z,98821.30
2018-09-23T15:27:57.675Z,98823.77
2018-09-23T15:30:25.428Z,98829.02
2018-09-23T15:32:53.124Z,98829.72
2018-09-23T15:35:20.804Z,98833.77
2018-09-23T15:37:48.504Z,98827.11
2018-09-23T15:40:16.173Z,98840.56
2018-09-23T15:42:43.968Z,98826.66
2018-09-23T15:45:11.722Z,98831.05
2018-09-23T15:47:39.383Z,98838.05
2018-09-23T15:50:07.063Z,98842.73
2018-09-23T15:52:34.835Z,98841.25
2018-09-23T15:55:02.520Z,98845.05
2018-09-23T15:57:30.234Z,98837.76
2018-09-23T15:59:57.932Z,98838.02
2018-09-23T16:02:25.608Z,98839.96
2018-09-23T16:04:53.344Z,98842.84
2018-09-23T16:07:21.076Z,98843.55
2018-09-23T16:09:48.813Z,98851.23
2018-09-23T16:12:16.471Z,98855.94
2018-09-23T16:14:44.265Z,98855.55
2018-09-23T16:17:12.036Z,98847.75
2018-09-23T16:19:39.748Z,98853.78
2018-09-23T16:22:07.488Z,98850.10
2018-09-23T16:24:35.152Z,98847.00
2018-09-23T16:27:02.846Z,98852.06
2018-09-23T16:29:30.604Z,98849.89
2018-09-23T16:31:58.298Z,98856.22
2018-09-23T16:34:27.033Z,98860.66
2018-09-23T16:36:54.724Z,98858.94
2018-09-23T16:39:22.436Z,98854.52
2018-09-23T16:41:50.137Z,98856.23
2018-09-23T16:44:17.801Z,98862.38
2018-09-23T16:46:45.545Z,98865.50
2018-09-23T16:49:13.199Z,98871.25
2018-09-23T16:51:40.863Z,98870.79
2018-09-23T16:54:08.572Z,98880.52
2018-09-23T16:56:36.250Z,98886.25
2018-09-23T16:59:04.090Z,98874.59
2018-09-23T17:01:31.768Z,98871.58
2018-09-23T17:03:59.437Z,98869.88
2018-09-23T17:06:27.156Z,98875.33
2018-09-23T17:08:54.871Z,98864.80
2018-09-23T17:11:22.516Z,98877.30
2018-09-23T17:13:50.198Z,98878.70
2018-09-23T17:16:17.865Z,98875.98
2018-09-23T17:18:45.545Z,98876.77
2018-09-23T17:21:13.260Z,98880.13
2018-09-23T17:23:40.997Z,98880.13
2018-09-23T17:26:08.668Z,98884.00
2018-09-23T17:28:36.440Z,98880.98
2018-09-23T17:31:04.085Z,98879.02
2018-09-23T17:33:31.749Z,98872.92
2018-09-23T17:35:59.467Z,98876.02
2018-09-23T17:38:27.141Z,98882.88
2018-09-23T17:40:54.819Z,98879.86
2018-09-23T17:43:22.553Z,98884.76
2018-09-23T17:45:50.315Z,98882.20
2018-09-23T17:48:17.967Z,98884.55
2018-09-23T17:50:45.677Z,98895.19
2018-09-23T17:53:13.398Z,98891.89
2018-09-23T17:55:41.211Z,98895.72
2018-09-23T17:58:08.873Z,98891.18
2018-09-23T18:00:39.667Z,98896.42
2018-09-23T18:03:07.383Z,98899.70
2018-09-23T18:05:35.063Z,98904.97
2018-09-23T18:08:02.832Z,98903.58
2018-09-23T18:10:30.507Z,98908.34
2018-09-23T18:12:58.192Z,98903.58
2018-09-23T18:15:25.933Z,98912.02
2018-09-23T18:17:53.612Z,98893.89
2018-09-23T18:20:21.332Z,98908.28
2018-09-23T18:22:49.064Z,98908.93
2018-09-23T18:25:16.908Z,98907.52
2018-09-23T18:27:44.630Z,98909.77
2018-09-23T18:30:12.328Z,98914.08
2018-09-23T18:32:39.994Z,98923.45
2018-09-23T18:35:07.688Z,98917.44
2018-09-23T18:37:35.405Z,98920.45
2018-09-23T18:40:03.115Z,98924.44
2018-09-23T18:42:30.867Z,98924.49
2018-09-23T18:44:58.532Z,98916.88
2018-09-23T18:50:01.927Z,98918.60
2018-09-23T18:52:30.336Z,98927.33
2018-09-23T18:55:03.691Z,98924.88
2018-09-23T18:57:31.436Z,98919.23
2018-09-23T18:59:59.101Z,98923.17
2018-09-23T19:02:26.776Z,98917.34
2018-09-23T19:04:54.528Z,98937.75
2018-09-23T19:07:22.224Z,98920.08
2018-09-23T19:09:50.028Z,98919.44
2018-09-23T19:12:17.757Z,98933.00
2018-09-23T19:14:45.431Z,98939.75
2018-09-23T19:17:13.107Z,98935.63
2018-09-23T19:19:46.473Z,98942.00
2018-09-23T19:22:19.688Z,98938.49
2018-09-23T19:24:47.406Z,98934.83
2018-09-23T19:27:15.073Z,98940.59
2018-09-23T19:29:42.757Z,98938.59
2018-09-23T19:32:10.466Z,98936.88
2018-09-23T19:34:38.129Z,98932.50
2018-09-23T19:37:06.072Z,98938.12
2018-09-23T19:39:33.747Z,98944.80
2018-09-23T19:42:01.469Z,98931.84
2018-09-23T19:44:29.174Z,98941.39
2018-09-23T19:46:56.936Z,98942.03
2018-09-23T19:49:25.038Z,98942.03
2018-09-23T19:51:52.683Z,98942.81
2018-09-23T19:54:20.357Z,98938.66
2018-09-23T19:56:48.131Z,98949.31
2018-09-23T19:59:15.821Z,98947.03
2018-09-23T20:01:43.488Z,98952.86
2018-09-23T20:04:11.208Z,98950.37
2018-09-23T20:06:38.966Z,98951.00
2018-09-23T20:09:08.632Z,98943.79
2018-09-23T20:11:36.359Z,98950.67
2018-09-23T20:14:04.103Z,98950.84
2018-09-23T20:16:31.781Z,98949.68
2018-09-23T20:18:59.440Z,98955.30
2018-09-23T20:21:27.687Z,98959.69
2018-09-23T20:23:55.352Z,98963.64
2018-09-23T20:26:23.044Z,98961.81
2018-09-23T20:28:50.764Z,98965.08
2018-09-23T20:31:18.415Z,98963.08
2018-09-23T20:33:46.124Z,98965.65
2018-09-23T20:36:13.816Z,98961.36
2018-09-23T20:38:41.496Z,98961.52
2018-09-23T20:41:09.248Z,98964.02
2018-09-23T20:43:36.909Z,98963.73
2018-09-23T20:46:04.584Z,98965.95
2018-09-23T20:48:32.263Z,98951.59
2018-09-23T20:50:59.955Z,98956.84
2018-09-23T20:53:27.691Z,98955.23
2018-09-23T20:55:55.381Z,98968.35
2018-09-23T20:58:23.080Z,98968.70
2018-09-23T21:00:50.784Z,98972.81
2018-09-23T21:03:18.449Z,98969.05
2018-09-23T21:05:46.137Z,98976.06
2018-09-23T21:08:13.853Z,98970.55
2018-09-23T21:10:41.568Z,98973.86
2018-09-23T21:13:09.292Z,98974.81
2018-09-23T21:15:37.045Z,98977.80
2018-09-23T21:18:04.792Z,98974.25
2018-09-23T21:20:32.464Z,98985.31
2018-09-23T21:23:00.132Z,98991.09
2018-09-23T21:25:27.795Z,98986.11
2018-09-23T21:27:55.510Z,98990.18
2018-09-23T21:30:23.173Z,98998.16
2018-09-23T21:32:50.844Z,98995.59
2018-09-23T21:35:18.540Z,99000.55
2018-09-23T21:37:46.192Z,98999.23
2018-09-23T21:40:13.845Z,98992.67
2018-09-23T21:42:41.520Z,98993.82
2018-09-23T21:45:09.209Z,99000.16
2018-09-23T21:47:36.881Z,99004.48
2018-09-23T21:50:04.628Z,99009.08
2018-09-23T21:52:32.315Z,99011.48
2018-09-23T21:55:00.068Z,99013.02
2018-09-23T21:57:27.731Z,99014.03
2018-09-23T21:59:55.408Z,99012.36
2018-09-23T22:02:23.248Z,99011.88
2018-09-23T22:04:50.951Z,99028.94
2018-09-23T22:07:18.616Z,99026.02
2018-09-23T22:09:46.365Z,99026.58
2018-09-23T22:12:14.050Z,99031.37
2018-09-23T22:14:41.713Z,99036.52
2018-09-23T22:17:09.408Z,99044.62
2018-09-23T22:19:37.153Z,99040.23
2018-09-23T22:22:04.882Z,99042.39
2018-09-23T22:24:32.544Z,99046.11
2018-09-23T22:27:00.352Z,99055.41
2018-09-23T22:29:28.083Z,99057.44
2018-09-23T22:31:55.760Z,99061.22
2018-09-23T22:34:23.511Z,99057.63
2018-09-23T22:36:51.192Z,99074.09
2018-09-23T22:39:18.893Z,99064.27
2018-09-23T22:41:46.684Z,99067.91
2018-09-23T22:44:14.324Z,99081.05
2018-09-23T22:46:42.020Z,99073.06
2018-09-23T22:49:09.702Z,99081.97
2018-09-23T22:51:37.375Z,99083.05
2018-09-23T22:54:05.098Z,99097.86
2018-09-23T22:56:32.775Z,99096.73
2018-09-23T22:59:00.524Z,99094.28
2018-09-23T23:01:28.212Z,99087.65
2018-09-23T23:03:55.898Z,99098.48
2018-09-23T23:06:23.544Z,99100.03
2018-09-23T23:08:51.264Z,99101.05
2018-09-23T23:11:18.932Z,99100.05
2018-09-23T23:13:46.591Z,99105.28
2018-09-23T23:16:14.277Z,99110.53
2018-09-23T23:18:41.952Z,99116.58
2018-09-23T23:21:09.636Z,99123.05
2018-09-23T23:23:37.311Z,99128.57
2018-09-23T23:26:05.056Z,99131.63
2018-09-23T23:28:32.742Z,99127.91
2018-09-23T23:31:00.407Z,99136.88
2018-09-23T23:33:28.061Z,99135.63
2018-09-23T23:35:55.775Z,99131.00
2018-09-23T23:38:23.469Z,99142.83
2018-09-23T23:40:51.145Z,99145.62
2018-09-23T23:43:18.856Z,99152.97
2018-09-23T23:45:46.595Z,99150.73
2018-09-23T23:48:14.313Z,99143.47
2018-09-23T23:50:41.984Z,99145.78
2018-09-23T23:53:09.658Z,99149.88
2018-09-23T23:55:37.344Z,99144.16
2018-09-23T23:58:05.033Z,99152.45
